Time;durP1;ratioP1;P1;durP2;ratioP2;P2;SDS_P1;SDS_P2;PMS_P1;PMS_P2;Temp;Humidity;BMP_temperature;BMP_pressure;BME280_temperature;BME280_humidity;BME280_pressure;Samples;Min_cycle;Max_cycle;Signal;HPM_P1;HPM_P2
2023/04/15 00:01:44;;;;;;;8.97;2.57;;;10.70;59.40;;;;;;4969880;28;20063;-70
2023/04/15 00:04:11;;;;;;;7.78;2.78;;;10.70;59.40;;;;;;4980221;28;20094;-70
2023/04/15 00:06:38;;;;;;;8.15;2.63;;;10.60;59.50;;;;;;4970215;28;20604;-70
2023/04/15 00:09:05;;;;;;;7.05;2.92;;;10.60;59.50;;;;;;4997587;28;20063;-70
2023/04/15 00:11:32;;;;;;;6.47;2.83;;;10.60;59.70;;;;;;4971806;28;20051;-70
2023/04/15 00:14:00;;;;;;;6.93;2.70;;;10.50;59.70;;;;;;4975240;28;20619;-70
2023/04/15 00:16:27;;;;;;;6.30;2.60;;;10.50;60.00;;;;;;4996414;28;20061;-70
2023/04/15 00:18:55;;;;;;;7.97;2.67;;;10.50;60.00;;;;;;4981128;28;20079;-70
2023/04/15 00:21:22;;;;;;;6.93;3.00;;;10.40;60.10;;;;;;4983889;28;20051;-70
2023/04/15 00:23:52;;;;;;;6.35;2.85;;;10.40;60.10;;;;;;4969814;28;20059;-70
2023/04/15 00:26:19;;;;;;;6.43;3.07;;;10.30;60.20;;;;;;4981380;28;20126;-70
2023/04/15 00:28:48;;;;;;;7.65;2.90;;;10.30;60.40;;;;;;4986604;28;20560;-70
2023/04/15 00:31:16;;;;;;;6.90;2.92;;;10.30;60.50;;;;;;4986573;28;20051;-70
2023/04/15 00:33:43;;;;;;;8.55;2.80;;;10.30;60.50;;;;;;4987008;28;20070;-70
2023/04/15 00:36:10;;;;;;;7.25;3.20;;;10.20;60.70;;;;;;5003725;28;20047;-71
2023/04/15 00:38:38;;;;;;;7.23;2.60;;;10.20;60.70;;;;;;4987255;28;20069;-70
2023/04/15 00:41:06;;;;;;;7.88;3.03;;;10.10;60.80;;;;;;4982593;28;20141;-70
2023/04/15 00:43:33;;;;;;;7.38;3.03;;;10.10;60.90;;;;;;4978819;28;20577;-70
2023/04/15 00:46:02;;;;;;;6.40;3.03;;;10.00;61.00;;;;;;4971282;28;20138;-70
2023/04/15 00:48:31;;;;;;;7.80;2.85;;;10.00;61.20;;;;;;4986397;28;20445;-70
2023/04/15 00:50:58;;;;;;;6.97;2.90;;;10.00;61.30;;;;;;4986402;28;20149;-70
2023/04/15 00:53:25;;;;;;;6.05;3.13;;;10.00;61.30;;;;;;4986549;28;20854;-70
2023/04/15 00:55:52;;;;;;;5.78;2.90;;;10.00;61.20;;;;;;4987037;28;20086;-70
2023/04/15 00:58:20;;;;;;;7.28;3.30;;;10.00;61.40;;;;;;4986045;28;20133;-71
2023/04/15 01:00:48;;;;;;;7.55;3.05;;;10.00;61.20;;;;;;4986105;28;20102;-72
2023/04/15 01:03:15;;;;;;;7.27;3.10;;;10.00;61.40;;;;;;4970249;28;20058;-70
2023/04/15 01:05:43;;;;;;;7.50;3.30;;;10.00;61.50;;;;;;4987102;28;20090;-70
2023/04/15 01:08:10;;;;;;;7.65;3.20;;;9.90;61.70;;;;;;4970583;28;20479;-70
2023/04/15 01:10:37;;;;;;;8.35;3.38;;;9.90;61.70;;;;;;4985808;28;20121;-70
2023/04/15 01:13:04;;;;;;;8.32;3.53;;;9.80;61.70;;;;;;4970194;28;20723;-70
2023/04/15 01:15:31;;;;;;;6.30;2.93;;;9.80;61.80;;;;;;4987662;28;20061;-70
2023/04/15 01:17:59;;;;;;;7.30;3.15;;;9.80;61.90;;;;;;4971666;28;20051;-70
2023/04/15 01:20:27;;;;;;;8.15;3.60;;;9.70;61.90;;;;;;4967797;28;20098;-70
2023/04/15 01:22:56;;;;;;;8.00;3.60;;;9.70;62.10;;;;;;4980245;28;20055;-70
2023/04/15 01:25:31;;;;;;;8.02;3.70;;;9.60;62.20;;;;;;4967019;28;20510;-70
2023/04/15 01:27:59;;;;;;;8.87;3.70;;;9.60;62.20;;;;;;4983237;28;20496;-70
2023/04/15 01:30:26;;;;;;;7.90;3.42;;;9.60;62.30;;;;;;4950306;28;20074;-70
2023/04/15 01:32:54;;;;;;;8.00;3.50;;;9.50;62.30;;;;;;4969225;28;20505;-70
2023/04/15 01:35:22;;;;;;;7.20;3.38;;;9.50;62.30;;;;;;4986479;28;20059;-71
2023/04/15 01:37:51;;;;;;;6.47;3.38;;;9.50;62.40;;;;;;4986428;28;20102;-70
2023/04/15 01:40:18;;;;;;;8.37;3.60;;;9.40;62.40;;;;;;4985689;28;20050;-70
2023/04/15 01:42:47;;;;;;;8.32;3.25;;;9.40;62.40;;;;;;4986049;28;20611;-70
2023/04/15 01:45:16;;;;;;;7.03;3.55;;;9.40;62.50;;;;;;4982180;28;20055;-70
2023/04/15 01:47:43;;;;;;;9.48;3.80;;;9.40;62.60;;;;;;4985409;28;20468;-70
2023/04/15 01:50:10;;;;;;;7.95;3.50;;;9.40;62.70;;;;;;4985756;28;20570;-70
2023/04/15 01:52:37;;;;;;;9.73;3.70;;;9.40;62.70;;;;;;4967976;28;20130;-70
2023/04/15 01:55:06;;;;;;;7.88;3.90;;;9.30;62.70;;;;;;4950870;28;20051;-70
2023/04/15 01:57:33;;;;;;;7.13;3.50;;;9.30;62.70;;;;;;4982578;28;20050;-70
2023/04/15 02:00:02;;;;;;;9.43;3.88;;;9.30;62.90;;;;;;4985941;28;20051;-70
2023/04/15 02:02:40;;;;;;;8.63;4.05;;;9.20;62.90;;;;;;4981151;28;20046;-71
2023/04/15 02:05:07;;;;;;;7.80;3.77;;;9.20;63.00;;;;;;4989223;28;20102;-70
2023/04/15 02:07:34;;;;;;;7.80;3.92;;;9.20;62.90;;;;;;4976356;28;20146;-70
2023/04/15 02:10:02;;;;;;;8.05;3.90;;;9.20;62.90;;;;;;4975799;28;20071;-70
2023/04/15 02:12:30;;;;;;;6.85;3.22;;;9.20;63.10;;;;;;4984984;28;20398;-71
2023/04/15 02:14:57;;;;;;;9.00;3.75;;;9.20;63.20;;;;;;4972906;28;20626;-70
2023/04/15 02:17:25;;;;;;;7.93;3.70;;;9.20;63.20;;;;;;4989436;28;20110;-70
2023/04/15 02:19:52;;;;;;;7.72;3.58;;;9.20;63.30;;;;;;4972370;28;20678;-70
2023/04/15 02:22:19;;;;;;;7.38;3.90;;;9.10;63.20;;;;;;4968094;28;20142;-70
2023/04/15 02:24:46;;;;;;;7.43;3.45;;;9.00;63.20;;;;;;4977382;28;20077;-70
2023/04/15 02:27:17;;;;;;;7.22;3.50;;;9.00;63.30;;;;;;4963686;28;20051;-70
2023/04/15 02:29:44;;;;;;;7.63;3.93;;;9.00;63.40;;;;;;4952803;28;20470;-71
2023/04/15 02:32:11;;;;;;;7.43;4.05;;;8.90;63.40;;;;;;4980878;28;20066;-70
2023/04/15 02:34:41;;;;;;;7.40;3.80;;;8.80;63.50;;;;;;4989111;28;20051;-70
2023/04/15 02:37:10;;;;;;;8.70;4.20;;;8.80;63.60;;;;;;4973148;28;20059;-70
2023/04/15 02:39:37;;;;;;;10.52;3.95;;;8.70;63.70;;;;;;4971904;28;20499;-70
2023/04/15 02:42:05;;;;;;;8.97;4.30;;;8.60;63.80;;;;;;4989162;28;20784;-70
2023/04/15 02:44:35;;;;;;;7.65;4.30;;;8.60;63.90;;;;;;4978389;28;20047;-70
2023/04/15 02:47:05;;;;;;;9.20;4.22;;;8.50;64.00;;;;;;4953698;28;20047;-70
2023/04/15 02:49:33;;;;;;;8.82;3.90;;;8.50;64.20;;;;;;4968769;28;20048;-69
2023/04/15 02:52:02;;;;;;;7.95;3.90;;;8.40;64.10;;;;;;4953190;28;20047;-70
2023/04/15 02:54:29;;;;;;;9.30;4.43;;;8.40;64.30;;;;;;4960819;28;20047;-70
2023/04/15 02:56:57;;;;;;;8.45;4.63;;;8.30;64.40;;;;;;4964276;28;20046;-70
2023/04/15 02:59:23;;;;;;;9.85;4.70;;;8.30;64.50;;;;;;4989403;28;20648;-70
2023/04/15 03:01:50;;;;;;;10.02;4.55;;;8.30;64.60;;;;;;4969774;28;20051;-70
2023/04/15 03:04:17;;;;;;;8.23;4.07;;;8.30;64.70;;;;;;4977744;28;20110;-71
2023/04/15 03:06:45;;;;;;;9.83;4.73;;;8.20;64.80;;;;;;4972465;28;20155;-70
2023/04/15 03:09:13;;;;;;;8.73;4.57;;;8.20;64.80;;;;;;4986280;28;20074;-70
2023/04/15 03:11:40;;;;;;;8.73;4.43;;;8.30;64.90;;;;;;4986456;28;20087;-70
2023/04/15 03:14:10;;;;;;;10.30;4.72;;;8.20;64.90;;;;;;4986548;28;20560;-71
2023/04/15 03:16:40;;;;;;;9.75;5.25;;;8.30;64.90;;;;;;4986830;28;20051;-70
2023/04/15 03:19:07;;;;;;;10.73;4.57;;;8.20;64.90;;;;;;4984933;28;20047;-70
2023/04/15 03:21:35;;;;;;;9.63;4.78;;;8.30;64.90;;;;;;4970792;28;20055;-70
2023/04/15 03:24:01;;;;;;;9.32;4.85;;;8.30;65.00;;;;;;4954419;28;20564;-70
2023/04/15 03:26:32;;;;;;;9.63;4.78;;;8.30;65.00;;;;;;4968940;28;20110;-70
2023/04/15 03:29:02;;;;;;;8.93;4.90;;;8.30;65.20;;;;;;4952399;28;20047;-70
2023/04/15 03:31:29;;;;;;;8.03;4.87;;;8.20;65.10;;;;;;4968927;28;20051;-70
2023/04/15 03:33:56;;;;;;;9.10;4.65;;;8.20;65.00;;;;;;4952117;28;20056;-70
2023/04/15 03:36:24;;;;;;;10.65;5.30;;;8.20;64.80;;;;;;4967017;28;20051;-70
2023/04/15 03:38:51;;;;;;;9.45;5.00;;;8.20;65.00;;;;;;4980924;28;20563;-71
2023/04/15 03:41:21;;;;;;;9.60;5.32;;;8.20;65.10;;;;;;4973973;28;20166;-70
2023/04/15 03:43:50;;;;;;;10.80;5.10;;;8.20;65.10;;;;;;4968477;28;20055;-71
2023/04/15 03:46:18;;;;;;;11.10;5.13;;;8.20;65.00;;;;;;4968319;28;20098;-70
2023/04/15 03:48:45;;;;;;;11.18;5.00;;;8.20;65.10;;;;;;4968436;28;20157;-70
2023/04/15 03:51:12;;;;;;;9.45;4.93;;;8.20;65.20;;;;;;4969167;28;20154;-70
2023/04/15 03:53:39;;;;;;;10.15;4.82;;;8.20;65.10;;;;;;4968275;28;20187;-70
2023/04/15 03:56:06;;;;;;;9.47;5.30;;;8.20;65.10;;;;;;4968287;28;20517;-70
2023/04/15 03:58:33;;;;;;;11.85;5.20;;;8.10;65.00;;;;;;4984999;28;20131;-70
2023/04/15 04:01:01;;;;;;;10.95;5.03;;;8.10;65.30;;;;;;4986924;28;20500;-70
2023/04/15 04:03:28;;;;;;;8.50;4.78;;;8.10;65.30;;;;;;4987904;28;20046;-70
2023/04/15 04:05:55;;;;;;;11.73;5.30;;;8.10;65.40;;;;;;4989171;28;20054;-70
2023/04/15 04:08:22;;;;;;;11.03;4.97;;;8.10;65.20;;;;;;4989341;28;20047;-70
2023/04/15 04:10:49;;;;;;;10.10;5.38;;;8.10;65.30;;;;;;4988217;28;20065;-70
2023/04/15 04:13:16;;;;;;;9.73;4.88;;;8.10;65.50;;;;;;4987036;28;20398;-70
2023/04/15 04:15:43;;;;;;;10.00;5.38;;;8.10;65.50;;;;;;4987101;28;20067;-70
2023/04/15 04:18:11;;;;;;;9.45;5.05;;;8.10;65.70;;;;;;4982552;28;20086;-70
2023/04/15 04:20:38;;;;;;;11.57;5.07;;;8.00;65.70;;;;;;4994749;28;20082;-70
2023/04/15 04:23:05;;;;;;;10.45;4.65;;;8.00;65.60;;;;;;4983612;28;20050;-70
2023/04/15 04:25:32;;;;;;;10.00;4.78;;;8.00;65.70;;;;;;4979590;28;20051;-70
2023/04/15 04:27:59;;;;;;;8.50;5.03;;;8.00;65.80;;;;;;4984276;28;20560;-70
2023/04/15 04:30:26;;;;;;;11.18;5.35;;;8.00;65.80;;;;;;4976453;28;20057;-70
2023/04/15 04:32:53;;;;;;;10.37;5.20;;;8.00;65.80;;;;;;4987366;28;20580;-70
2023/04/15 04:35:21;;;;;;;10.07;5.38;;;7.90;65.80;;;;;;4986547;28;20493;-70
2023/04/15 04:37:49;;;;;;;10.18;4.82;;;7.90;65.80;;;;;;4983011;28;20051;-70
2023/04/15 04:40:16;;;;;;;11.27;5.13;;;7.90;65.90;;;;;;4985639;28;20097;-70
2023/04/15 04:42:43;;;;;;;10.43;5.28;;;7.80;65.90;;;;;;4984099;28;20048;-70
2023/04/15 04:45:11;;;;;;;9.97;5.37;;;7.80;65.90;;;;;;4985309;28;20077;-70
2023/04/15 04:47:38;;;;;;;12.07;5.60;;;7.80;66.00;;;;;;4991640;28;20125;-70
2023/04/15 04:50:06;;;;;;;11.00;5.57;;;7.80;66.00;;;;;;4978903;28;20183;-70
2023/04/15 04:52:34;;;;;;;9.20;5.25;;;7.80;66.00;;;;;;4980460;28;20059;-70
2023/04/15 04:55:01;;;;;;;10.27;5.38;;;7.80;66.10;;;;;;4975627;28;20127;-70
2023/04/15 04:57:28;;;;;;;8.87;5.10;;;7.80;66.20;;;;;;4976428;28;20079;-70
2023/04/15 04:59:55;;;;;;;10.77;5.10;;;7.80;66.20;;;;;;4977782;28;20064;-70
2023/04/15 05:02:22;;;;;;;10.65;5.25;;;7.80;66.30;;;;;;4981439;28;20054;-70
2023/04/15 05:04:53;;;;;;;9.93;5.28;;;7.80;66.30;;;;;;4984661;28;20063;-70
2023/04/15 05:07:20;;;;;;;10.32;5.15;;;7.80;66.40;;;;;;4988396;28;20055;-70
2023/04/15 05:09:48;;;;;;;10.87;5.20;;;7.80;66.50;;;;;;4979237;28;20147;-70
2023/04/15 05:12:17;;;;;;;10.68;5.97;;;7.80;66.60;;;;;;4988427;28;20109;-70
2023/04/15 05:14:45;;;;;;;10.38;5.60;;;7.80;66.50;;;;;;5001622;28;20067;-70
2023/04/15 05:17:13;;;;;;;11.30;5.53;;;7.70;66.50;;;;;;4980562;28;20058;-69
2023/04/15 05:19:40;;;;;;;11.73;5.90;;;7.70;66.50;;;;;;4959610;28;20054;-70
2023/04/15 05:22:07;;;;;;;10.47;5.40;;;7.70;66.60;;;;;;4981639;28;20122;-70
2023/04/15 05:24:34;;;;;;;10.65;5.38;;;7.70;66.60;;;;;;4982009;28;20481;-70
2023/04/15 05:27:03;;;;;;;10.68;5.40;;;7.70;66.60;;;;;;4983936;28;20078;-70
2023/04/15 05:29:30;;;;;;;9.98;5.22;;;7.60;66.60;;;;;;5001703;28;20922;-70
2023/04/15 05:31:57;;;;;;;10.35;5.10;;;7.60;66.60;;;;;;4984029;28;20581;-70
2023/04/15 05:34:24;;;;;;;11.57;5.00;;;7.60;66.20;;;;;;4970997;28;20134;-70
2023/04/15 05:36:52;;;;;;;11.15;5.68;;;7.60;66.30;;;;;;4972488;28;20166;-70
2023/04/15 05:39:19;;;;;;;13.85;6.05;;;7.60;66.40;;;;;;4986133;28;20055;-70
2023/04/15 05:41:46;;;;;;;12.55;6.63;;;7.60;66.30;;;;;;4984274;28;20051;-70
2023/04/15 05:44:15;;;;;;;15.30;7.45;;;7.60;66.00;;;;;;4972433;28;20464;-70
2023/04/15 05:46:42;;;;;;;14.23;7.20;;;7.60;66.00;;;;;;4981829;28;20055;-70
2023/04/15 05:49:10;;;;;;;16.55;7.28;;;7.60;66.20;;;;;;4984922;28;20142;-70
2023/04/15 05:51:37;;;;;;;14.20;7.25;;;7.60;66.10;;;;;;4977044;28;20070;-70
2023/04/15 05:54:04;;;;;;;15.38;7.30;;;7.60;66.20;;;;;;4983111;28;20161;-70
2023/04/15 05:56:31;;;;;;;14.48;7.30;;;7.50;66.10;;;;;;4990679;28;20054;-70
2023/04/15 05:58:58;;;;;;;14.47;7.23;;;7.50;66.00;;;;;;4981607;28;20054;-70
2023/04/15 06:01:27;;;;;;;15.13;7.03;;;7.60;66.20;;;;;;5000002;28;20082;-70
2023/04/15 06:03:54;;;;;;;13.60;7.30;;;7.60;66.40;;;;;;4988920;28;20490;-70
2023/04/15 06:06:22;;;;;;;13.55;7.35;;;7.50;66.40;;;;;;4976893;28;20057;-70
2023/04/15 06:08:49;;;;;;;14.68;7.57;;;7.50;66.60;;;;;;5003739;28;20058;-70
2023/04/15 06:11:16;;;;;;;13.63;7.00;;;7.60;66.60;;;;;;4990862;28;20515;-70
2023/04/15 06:13:43;;;;;;;13.25;7.20;;;7.60;66.60;;;;;;4984214;28;20051;-70
2023/04/15 06:16:10;;;;;;;15.77;7.97;;;7.60;66.60;;;;;;4979826;28;20576;-70
2023/04/15 06:18:39;;;;;;;15.13;7.57;;;7.60;66.80;;;;;;4976496;28;20806;-70
2023/04/15 06:21:06;;;;;;;14.80;7.50;;;7.60;66.90;;;;;;4984688;28;20134;-70
2023/04/15 06:23:35;;;;;;;14.63;7.43;;;7.60;67.00;;;;;;4988497;28;20121;-70
2023/04/15 06:26:02;;;;;;;13.77;7.65;;;7.60;67.20;;;;;;4990757;28;20156;-70
2023/04/15 06:28:29;;;;;;;13.25;7.18;;;7.70;67.60;;;;;;4986366;28;20054;-70
2023/04/15 06:30:56;;;;;;;15.32;7.40;;;7.70;67.30;;;;;;4985161;28;20161;-70
2023/04/15 06:33:24;;;;;;;13.57;7.30;;;7.70;67.70;;;;;;4990049;28;20086;-70
2023/04/15 06:35:53;;;;;;;14.33;7.30;;;7.80;68.00;;;;;;4982773;28;20113;-70
2023/04/15 06:38:20;;;;;;;14.95;6.68;;;7.80;68.50;;;;;;5005617;28;20141;-70
2023/04/15 06:40:47;;;;;;;14.93;7.03;;;7.80;68.10;;;;;;4966384;28;20657;-70
2023/04/15 06:43:14;;;;;;;13.88;6.97;;;7.80;68.70;;;;;;4985985;28;21022;-70
2023/04/15 06:45:41;;;;;;;14.68;7.35;;;7.80;68.90;;;;;;4970423;28;20134;-70
2023/04/15 06:48:09;;;;;;;14.27;6.67;;;7.80;69.10;;;;;;4985753;28;20078;-70
2023/04/15 06:50:36;;;;;;;13.10;6.43;;;7.80;69.00;;;;;;4997317;28;20603;-70
2023/04/15 06:53:05;;;;;;;15.02;7.53;;;7.90;69.50;;;;;;4983249;28;20079;-70
2023/04/15 06:55:32;;;;;;;15.50;7.03;;;8.00;70.20;;;;;;4985643;28;20055;-70
2023/04/15 06:58:02;;;;;;;13.73;7.07;;;8.00;70.10;;;;;;4985290;28;21004;-70
2023/04/15 07:00:29;;;;;;;14.20;6.90;;;8.00;70.10;;;;;;4987311;28;21071;-71
2023/04/15 07:02:56;;;;;;;14.15;7.40;;;8.00;70.60;;;;;;4982738;28;20489;-70
2023/04/15 07:05:24;;;;;;;16.73;7.30;;;8.10;70.80;;;;;;4986645;28;20054;-70
2023/04/15 07:07:52;;;;;;;13.93;6.47;;;8.10;71.10;;;;;;4985985;28;20073;-70
2023/04/15 07:10:20;;;;;;;14.10;6.80;;;8.10;70.90;;;;;;4984204;28;20046;-70
2023/04/15 07:12:49;;;;;;;15.70;6.73;;;8.20;71.20;;;;;;4984621;28;20145;-70
2023/04/15 07:15:16;;;;;;;13.18;6.45;;;8.20;71.60;;;;;;4985693;28;20054;-71
2023/04/15 07:17:43;;;;;;;13.82;6.70;;;8.30;72.00;;;;;;4984030;28;20122;-70
2023/04/15 07:20:12;;;;;;;12.35;6.13;;;8.30;71.90;;;;;;4993951;28;20046;-70
2023/04/15 07:22:40;;;;;;;11.20;5.70;;;8.30;72.40;;;;;;4995526;28;20541;-70
2023/04/15 07:25:08;;;;;;;12.83;6.83;;;8.40;72.70;;;;;;5001609;28;20133;-70
2023/04/15 07:27:37;;;;;;;13.93;6.63;;;8.40;72.80;;;;;;4986505;28;20101;-69
2023/04/15 07:30:05;;;;;;;12.43;6.05;;;8.50;73.10;;;;;;4979067;28;20150;-69
2023/04/15 07:32:32;;;;;;;14.93;6.30;;;8.50;73.00;;;;;;4973684;28;20481;-69
2023/04/15 07:35:01;;;;;;;12.23;6.25;;;8.50;72.90;;;;;;4979359;28;20106;-69
2023/04/15 07:37:28;;;;;;;13.37;6.13;;;8.50;72.20;;;;;;4974975;28;20884;-69
2023/04/15 07:39:55;;;;;;;11.73;5.60;;;8.60;72.70;;;;;;4981221;28;20133;-69
2023/04/15 07:42:22;;;;;;;13.60;6.38;;;8.60;73.30;;;;;;4993906;28;20087;-69
2023/04/15 07:44:51;;;;;;;11.52;5.47;;;8.60;73.20;;;;;;4993783;28;20050;-70
2023/04/15 07:47:18;;;;;;;11.50;6.00;;;8.60;72.90;;;;;;4989968;28;20584;-68
2023/04/15 07:49:46;;;;;;;11.60;5.67;;;8.70;73.20;;;;;;4977868;28;20071;-69
2023/04/15 07:52:13;;;;;;;11.65;5.60;;;8.80;73.20;;;;;;4986335;28;20096;-69
2023/04/15 07:54:40;;;;;;;12.25;5.72;;;8.80;73.40;;;;;;4982441;28;20191;-70
2023/04/15 07:57:08;;;;;;;12.23;6.22;;;8.90;73.50;;;;;;4981979;28;20050;-69
2023/04/15 07:59:35;;;;;;;11.70;5.78;;;8.90;73.50;;;;;;4981515;28;20079;-69
2023/04/15 08:02:04;;;;;;;11.07;5.23;;;8.90;73.30;;;;;;4997867;28;20066;-69
2023/04/15 08:04:32;;;;;;;10.10;4.93;;;9.00;73.30;;;;;;5001536;28;20074;-69
2023/04/15 08:06:59;;;;;;;9.52;5.10;;;9.00;73.50;;;;;;4979967;28;20079;-69
2023/04/15 08:09:26;;;;;;;11.23;5.32;;;9.00;73.60;;;;;;4981042;28;20055;-69
2023/04/15 08:11:55;;;;;;;10.50;5.10;;;9.10;73.50;;;;;;4977226;28;20082;-69
2023/04/15 08:14:22;;;;;;;8.90;4.83;;;9.20;74.00;;;;;;4997717;28;20050;-69
2023/04/15 08:16:49;;;;;;;8.27;4.57;;;9.20;74.30;;;;;;4983372;28;20086;-70
2023/04/15 08:19:18;;;;;;;9.43;4.47;;;9.20;74.60;;;;;;4983024;28;20762;-69
2023/04/15 08:21:45;;;;;;;7.80;4.28;;;9.30;74.60;;;;;;4960298;28;20102;-70
2023/04/15 08:24:13;;;;;;;8.70;4.30;;;9.40;74.70;;;;;;4983281;28;20055;-70
2023/04/15 08:26:40;;;;;;;9.07;3.80;;;9.40;74.30;;;;;;4981307;28;20054;-70
2023/04/15 08:29:07;;;;;;;9.45;4.22;;;9.40;73.90;;;;;;4985323;28;20082;-70
2023/04/15 08:31:35;;;;;;;9.32;3.60;;;9.40;74.60;;;;;;4986003;28;20054;-70
2023/04/15 08:34:02;;;;;;;7.50;3.40;;;9.50;74.00;;;;;;4997810;28;20229;-70
2023/04/15 08:36:31;;;;;;;9.10;3.30;;;9.50;74.10;;;;;;5028879;23;20051;-70
2023/04/15 08:39:00;;;;;;;7.17;2.97;;;9.50;74.20;;;;;;5024157;28;20053;-70
2023/04/15 08:41:33;;;;;;;8.27;3.28;;;9.60;74.20;;;;;;5016133;28;20089;-70
2023/04/15 08:44:04;;;;;;;8.07;3.50;;;9.60;74.50;;;;;;5031390;28;20505;-70
2023/04/15 08:46:33;;;;;;;6.63;2.90;;;9.70;74.50;;;;;;5016639;28;20061;-70
2023/04/15 08:49:02;;;;;;;7.38;3.25;;;9.70;74.30;;;;;;5018324;28;20081;-69
2023/04/15 08:51:31;;;;;;;7.17;3.43;;;9.70;73.90;;;;;;5022928;28;20055;-70
2023/04/15 08:53:59;;;;;;;8.30;3.55;;;9.80;74.10;;;;;;5038140;28;20093;-70
2023/04/15 08:56:27;;;;;;;7.43;3.40;;;9.80;74.00;;;;;;5040514;28;20148;-69
2023/04/15 08:58:55;;;;;;;8.68;3.38;;;9.90;73.80;;;;;;5023953;28;20137;-69
2023/04/15 09:01:22;;;;;;;6.78;3.05;;;10.00;73.50;;;;;;5036654;28;20520;-69
2023/04/15 09:03:50;;;;;;;7.33;3.40;;;10.00;73.50;;;;;;5023467;28;20049;-69
2023/04/15 09:06:17;;;;;;;7.03;3.45;;;10.00;73.60;;;;;;5041029;28;20112;-69
2023/04/15 09:08:46;;;;;;;6.95;3.60;;;10.00;73.50;;;;;;5019091;28;20125;-69
2023/04/15 09:11:14;;;;;;;7.43;3.30;;;10.00;73.40;;;;;;5018041;28;20223;-69
2023/04/15 09:13:41;;;;;;;7.72;3.53;;;10.10;72.80;;;;;;5022699;28;20161;-69
2023/04/15 09:16:08;;;;;;;6.17;2.60;;;10.10;72.80;;;;;;5026291;28;20057;-69
2023/04/15 09:18:38;;;;;;;8.55;2.35;;;10.10;72.90;;;;;;5022212;28;20057;-70
2023/04/15 09:21:07;;;;;;;6.68;2.55;;;10.10;73.00;;;;;;5021378;28;20049;-70
2023/04/15 09:23:35;;;;;;;6.78;2.67;;;10.20;73.00;;;;;;5039613;28;20053;-70
2023/04/15 09:26:05;;;;;;;6.90;2.92;;;10.20;72.60;;;;;;5024978;28;20054;-69
2023/04/15 09:28:34;;;;;;;7.17;2.57;;;10.20;72.10;;;;;;5034846;28;20191;-69
2023/04/15 09:31:02;;;;;;;8.82;3.50;;;10.20;72.00;;;;;;5036917;28;20107;-70
2023/04/15 09:33:30;;;;;;;5.60;2.80;;;10.20;71.90;;;;;;5023766;28;21124;-70
2023/04/15 09:35:59;;;;;;;6.75;2.90;;;10.20;72.20;;;;;;5024339;28;20054;-70
2023/04/15 09:38:27;;;;;;;9.75;3.10;;;10.30;71.50;;;;;;5019130;28;20136;-70
2023/04/15 09:40:54;;;;;;;7.77;2.87;;;10.30;71.40;;;;;;5041745;28;20863;-69
2023/04/15 09:43:24;;;;;;;6.55;2.70;;;10.30;71.50;;;;;;5027442;28;20120;-70
2023/04/15 09:45:52;;;;;;;6.20;2.67;;;10.40;71.90;;;;;;5025204;28;20042;-70
2023/04/15 09:48:21;;;;;;;4.97;2.10;;;10.40;71.50;;;;;;5025032;28;21067;-69
2023/04/15 09:50:49;;;;;;;4.63;1.77;;;10.40;71.90;;;;;;5042171;28;20060;-69
2023/04/15 09:53:18;;;;;;;5.67;1.70;;;10.40;71.90;;;;;;5033507;28;20046;-69
2023/04/15 09:55:49;;;;;;;5.72;1.90;;;10.40;72.00;;;;;;5040906;28;20065;-69
2023/04/15 09:58:20;;;;;;;4.43;1.60;;;10.40;71.80;;;;;;5040977;28;20053;-69
2023/04/15 10:00:50;;;;;;;4.93;1.85;;;10.40;71.30;;;;;;5038961;28;20534;-69
2023/04/15 10:03:21;;;;;;;4.43;1.40;;;10.50;71.50;;;;;;5036419;28;20061;-69
2023/04/15 10:05:49;;;;;;;5.60;1.30;;;10.50;71.50;;;;;;5023258;28;20073;-69
2023/04/15 10:08:18;;;;;;;4.57;1.80;;;10.50;71.20;;;;;;5020689;28;20053;-69
2023/04/15 10:10:46;;;;;;;6.32;2.03;;;10.50;71.10;;;;;;5022636;28;20041;-70
2023/04/15 10:13:16;;;;;;;4.45;1.40;;;10.50;71.20;;;;;;5039686;28;20490;-70
2023/04/15 10:15:46;;;;;;;6.10;1.40;;;10.60;71.10;;;;;;5038317;28;20220;-70
2023/04/15 10:18:19;;;;;;;4.30;1.60;;;10.60;70.40;;;;;;5033951;28;20185;-69
2023/04/15 10:20:47;;;;;;;7.13;1.70;;;10.60;70.80;;;;;;5033886;28;20049;-69
2023/04/15 10:23:17;;;;;;;4.20;1.40;;;10.70;70.40;;;;;;5028031;28;20448;-69
2023/04/15 10:25:46;;;;;;;5.47;1.05;;;10.70;70.40;;;;;;5052111;28;20746;-69
2023/04/15 10:28:14;;;;;;;3.67;1.27;;;10.70;70.20;;;;;;5028151;28;20045;-69
2023/04/15 10:30:42;;;;;;;3.67;1.17;;;10.80;70.20;;;;;;5040996;28;20054;-69
2023/04/15 10:33:11;;;;;;;4.70;1.25;;;10.80;70.10;;;;;;5043066;28;20112;-69
2023/04/15 10:35:39;;;;;;;3.50;1.38;;;10.80;70.20;;;;;;5020244;28;20054;-69
2023/04/15 10:38:38;;;;;;;4.10;1.35;;;10.80;69.90;;;;;;5041124;28;20131;-69
2023/04/15 10:41:16;;;;;;;4.68;1.45;;;10.90;69.70;;;;;;5024620;28;20057;-69
2023/04/15 10:43:49;;;;;;;3.30;1.00;;;10.90;69.80;;;;;;5030469;28;20072;-69
2023/04/15 10:46:19;;;;;;;4.22;1.10;;;10.90;69.70;;;;;;5025456;28;20529;-69
2023/04/15 10:48:51;;;;;;;5.30;1.17;;;10.90;69.70;;;;;;5027432;28;20042;-69
2023/04/15 10:51:30;;;;;;;4.50;1.42;;;10.90;69.70;;;;;;5040599;28;20077;-69
2023/04/15 10:53:58;;;;;;;4.25;1.65;;;10.90;69.70;;;;;;5027862;28;20128;-69
2023/04/15 10:56:25;;;;;;;4.03;1.17;;;10.90;69.50;;;;;;5026272;28;20057;-69
2023/04/15 10:58:53;;;;;;;3.67;1.30;;;10.90;69.80;;;;;;5024882;28;20045;-69
2023/04/15 11:01:22;;;;;;;3.83;1.23;;;10.90;69.70;;;;;;5024892;28;20077;-69
2023/04/15 11:03:55;;;;;;;4.65;1.30;;;11.00;69.90;;;;;;5026229;28;20439;-69
2023/04/15 11:06:46;;;;;;;3.65;1.15;;;11.00;69.30;;;;;;5037713;28;20483;-69
2023/04/15 11:09:32;;;;;;;5.07;1.20;;;11.00;69.30;;;;;;5007770;28;20496;-69
2023/04/15 11:12:08;;;;;;;4.35;1.17;;;11.00;69.30;;;;;;5026965;28;20041;-69
2023/04/15 11:14:40;;;;;;;2.78;0.90;;;11.00;69.40;;;;;;5021988;28;20168;-69
2023/04/15 11:17:08;;;;;;;3.28;1.05;;;11.10;69.10;;;;;;5029059;28;20527;-69
2023/04/15 11:19:38;;;;;;;3.30;1.00;;;11.10;69.20;;;;;;5027209;28;20125;-69
2023/04/15 11:22:11;;;;;;;5.13;0.90;;;11.10;69.00;;;;;;5046085;28;20064;-69
2023/04/15 11:24:49;;;;;;;5.30;1.23;;;11.10;69.20;;;;;;5024822;28;20058;-69
2023/04/15 11:27:22;;;;;;;8.05;1.65;;;11.10;69.10;;;;;;5020211;28;20049;-70
2023/04/15 11:29:49;;;;;;;4.45;1.10;;;11.10;69.40;;;;;;5046764;28;20058;-69
2023/04/15 11:32:16;;;;;;;5.95;1.42;;;11.10;69.10;;;;;;5008018;28;20179;-69
2023/04/15 11:34:47;;;;;;;6.33;1.53;;;11.10;69.00;;;;;;5027950;28;20161;-70
2023/04/15 11:37:15;;;;;;;5.28;1.30;;;11.20;69.00;;;;;;5034524;28;20057;-69
2023/04/15 11:39:42;;;;;;;6.00;1.48;;;11.20;68.90;;;;;;5044384;28;20140;-69
2023/04/15 11:42:17;;;;;;;4.93;1.23;;;11.30;68.80;;;;;;5025438;28;20077;-69
2023/04/15 11:44:44;;;;;;;4.60;1.35;;;11.30;69.00;;;;;;5044342;28;20199;-69
2023/04/15 11:47:22;;;;;;;4.50;1.27;;;11.30;69.10;;;;;;5025477;28;20132;-69
2023/04/15 11:49:50;;;;;;;4.35;1.40;;;11.30;68.80;;;;;;5022328;28;20835;-70
2023/04/15 11:52:18;;;;;;;5.85;1.73;;;11.30;68.80;;;;;;5027079;28;20060;-69
2023/04/15 11:54:45;;;;;;;6.45;1.77;;;11.30;68.90;;;;;;5024793;28;20049;-70
2023/04/15 11:57:13;;;;;;;4.18;1.38;;;11.30;68.90;;;;;;5024276;28;20112;-70
2023/04/15 11:59:43;;;;;;;5.33;1.90;;;11.40;68.70;;;;;;5042483;28;20176;-71
2023/04/15 12:02:12;;;;;;;4.95;1.90;;;11.40;69.10;;;;;;5027869;28;20062;-69
2023/04/15 12:04:40;;;;;;;4.50;1.52;;;11.30;68.90;;;;;;5024315;28;20129;-70
2023/04/15 12:07:07;;;;;;;6.30;1.52;;;11.30;68.90;;;;;;5026571;28;20049;-70
2023/04/15 12:09:39;;;;;;;4.50;1.58;;;11.30;68.50;;;;;;5032608;28;20080;-70
2023/04/15 12:12:06;;;;;;;6.60;1.60;;;11.30;68.60;;;;;;5026690;28;20045;-70
2023/04/15 12:14:34;;;;;;;5.18;1.52;;;11.40;68.70;;;;;;5039892;28;20504;-70
2023/04/15 12:17:03;;;;;;;6.03;1.75;;;11.30;68.70;;;;;;5024985;28;20065;-70
2023/04/15 12:19:34;;;;;;;7.32;1.48;;;11.30;68.60;;;;;;5014626;28;20046;-70
2023/04/15 12:22:04;;;;;;;6.35;1.75;;;11.30;68.60;;;;;;5025815;28;20053;-69
2023/04/15 12:24:32;;;;;;;5.27;1.73;;;11.40;68.40;;;;;;5040958;28;20057;-70
2023/04/15 12:27:03;;;;;;;5.38;1.42;;;11.40;68.40;;;;;;5046085;28;20045;-70
2023/04/15 12:29:31;;;;;;;4.90;1.33;;;11.40;68.60;;;;;;5027362;28;20045;-70
2023/04/15 12:32:00;;;;;;;7.43;1.50;;;11.40;68.40;;;;;;5028389;28;20507;-70
2023/04/15 12:34:29;;;;;;;6.20;1.50;;;11.40;68.40;;;;;;5046434;28;20677;-70
2023/04/15 12:36:57;;;;;;;6.63;1.33;;;11.40;68.50;;;;;;5046110;28;20068;-70
2023/04/15 12:39:26;;;;;;;8.45;1.48;;;11.40;68.70;;;;;;5010681;28;20144;-70
2023/04/15 12:41:53;;;;;;;4.97;1.30;;;11.50;68.50;;;;;;5022582;28;20050;-70
2023/04/15 12:44:23;;;;;;;5.47;1.50;;;11.50;68.40;;;;;;5039875;28;20846;-70
2023/04/15 12:46:51;;;;;;;4.97;1.40;;;11.50;68.60;;;;;;5046982;28;20049;-70
2023/04/15 12:49:19;;;;;;;6.30;1.53;;;11.50;68.50;;;;;;5026379;28;20054;-70
2023/04/15 12:51:48;;;;;;;5.35;1.30;;;11.50;68.20;;;;;;5025939;28;20612;-70
2023/04/15 12:54:16;;;;;;;7.85;1.60;;;11.50;68.20;;;;;;5040436;28;20057;-70
2023/04/15 12:56:43;;;;;;;7.63;1.52;;;11.50;68.20;;;;;;5037454;28;20062;-70